createdAt,value
2023-01-13T04:15:55.140Z,14.20
2023-01-13T04:16:57.032Z,9.80
2023-01-13T04:17:58.838Z,6.55
2023-01-13T04:19:00.641Z,5.71
2023-01-13T04:20:02.486Z,5.66
2023-01-13T04:21:04.347Z,7.23
2023-01-13T04:22:06.155Z,6.35
2023-01-13T04:23:07.956Z,7.18
2023-01-13T04:24:09.783Z,7.63
2023-01-13T04:25:11.580Z,7.14
2023-01-13T04:26:13.646Z,8.07
2023-01-13T04:27:15.439Z,6.21
2023-01-13T04:28:17.240Z,6.17
2023-01-13T04:29:19.055Z,5.55
2023-01-13T04:30:20.963Z,6.17
2023-01-13T04:31:22.905Z,5.67
2023-01-13T04:32:24.703Z,5.71
2023-01-13T04:33:26.509Z,5.90
2023-01-13T04:34:28.615Z,5.92
2023-01-13T04:35:30.436Z,5.26
2023-01-13T04:36:32.402Z,5.75
2023-01-13T04:37:34.212Z,4.77
2023-01-13T04:38:36.030Z,5.68
2023-01-13T04:39:37.922Z,5.63
2023-01-13T04:40:39.767Z,5.43
2023-01-13T04:41:41.687Z,4.89
2023-01-13T04:42:43.495Z,5.31
2023-01-13T04:43:45.302Z,6.17
2023-01-13T04:44:47.104Z,5.52
2023-01-13T04:45:48.917Z,5.60
2023-01-13T04:46:50.979Z,4.90
2023-01-13T04:47:52.767Z,5.61
2023-01-13T04:48:54.573Z,5.53
2023-01-13T04:49:56.395Z,6.49
2023-01-13T04:50:58.318Z,5.26
2023-01-13T04:52:00.178Z,4.40
2023-01-13T04:53:01.977Z,6.31
2023-01-13T04:54:03.799Z,6.15
2023-01-13T04:55:05.689Z,4.97
2023-01-13T04:56:07.701Z,7.57
2023-01-13T04:57:09.552Z,6.85
2023-01-13T04:58:11.375Z,6.11
2023-01-13T04:59:13.182Z,6.11
2023-01-13T05:00:14.993Z,6.04
2023-01-13T05:01:16.960Z,5.57
2023-01-13T05:02:18.899Z,5.48
2023-01-13T05:03:20.675Z,5.80
2023-01-13T05:04:22.596Z,7.85
2023-01-13T05:05:24.509Z,7.05
2023-01-13T05:06:26.430Z,5.76
2023-01-13T05:07:28.284Z,5.33
2023-01-13T05:08:30.082Z,5.52
2023-01-13T05:09:32.025Z,7.75
2023-01-13T05:10:33.963Z,6.59
2023-01-13T05:11:35.763Z,6.69
2023-01-13T05:12:37.617Z,7.68
2023-01-13T05:13:39.451Z,8.11
2023-01-13T05:14:41.236Z,7.26
2023-01-13T05:15:43.095Z,7.90
2023-01-13T05:16:45.170Z,8.41
2023-01-13T05:17:47.012Z,6.90
2023-01-13T05:18:48.846Z,5.78
2023-01-13T05:19:50.648Z,6.71
2023-01-13T05:20:52.593Z,6.63
2023-01-13T05:21:54.417Z,6.75
2023-01-13T05:22:56.291Z,6.54
2023-01-13T05:23:58.070Z,7.81
2023-01-13T05:24:59.882Z,8.33
2023-01-13T05:26:01.802Z,6.77
2023-01-13T05:27:03.642Z,6.34
2023-01-13T05:28:05.497Z,6.03
2023-01-13T05:29:07.340Z,6.10
2023-01-13T05:30:10.973Z,6.46
2023-01-13T05:31:12.850Z,5.69
2023-01-13T05:32:14.725Z,9.46
2023-01-13T05:33:16.589Z,8.17
2023-01-13T05:34:18.390Z,7.56
2023-01-13T05:35:20.221Z,7.17
2023-01-13T05:36:22.136Z,6.87
2023-01-13T05:37:23.963Z,6.76
2023-01-13T05:38:25.810Z,5.65
2023-01-13T05:39:27.612Z,6.79
2023-01-13T05:40:29.548Z,6.29
2023-01-13T05:41:31.423Z,6.97
2023-01-13T05:42:33.250Z,6.71
2023-01-13T05:43:35.106Z,5.58
2023-01-13T05:44:36.920Z,5.87
2023-01-13T05:45:38.729Z,5.39
2023-01-13T05:46:40.679Z,6.29
2023-01-13T05:47:42.452Z,6.16
2023-01-13T05:48:44.324Z,5.52
2023-01-13T05:49:46.155Z,5.80
2023-01-13T05:50:48.077Z,5.62
2023-01-13T05:51:49.896Z,5.18
2023-01-13T05:52:51.719Z,5.27
2023-01-13T05:53:53.577Z,6.13
2023-01-13T05:54:55.398Z,5.68
2023-01-13T05:55:57.191Z,6.09
2023-01-13T05:56:59.137Z,5.67
2023-01-13T05:58:00.978Z,5.34
2023-01-13T05:59:02.831Z,5.74
2023-01-13T06:00:04.739Z,4.91
2023-01-13T06:01:06.683Z,6.54
2023-01-13T06:02:08.465Z,5.20
2023-01-13T06:03:10.303Z,4.63
2023-01-13T06:04:12.144Z,4.69
2023-01-13T06:05:13.958Z,4.79
2023-01-13T06:06:15.843Z,4.89
2023-01-13T06:07:17.650Z,4.74
2023-01-13T06:08:19.466Z,4.75
2023-01-13T06:09:21.323Z,4.59
2023-01-13T06:10:23.226Z,5.05
2023-01-13T06:11:25.029Z,4.64
2023-01-13T06:12:27.040Z,5.24
2023-01-13T06:13:28.871Z,4.65
2023-01-13T06:14:30.753Z,5.14
2023-01-13T06:15:32.551Z,4.96
2023-01-13T06:16:34.621Z,4.46
2023-01-13T06:17:36.512Z,4.75
2023-01-13T06:18:38.316Z,4.87
2023-01-13T06:19:40.157Z,5.32
2023-01-13T06:20:42.074Z,7.14
2023-01-13T06:21:43.895Z,5.61
2023-01-13T06:22:45.710Z,4.55
2023-01-13T06:23:47.512Z,5.41
2023-01-13T06:24:49.366Z,4.89
2023-01-13T06:25:51.190Z,5.03
2023-01-13T06:26:53.287Z,5.00
2023-01-13T06:27:55.118Z,4.59
2023-01-13T06:28:56.942Z,5.33
2023-01-13T06:29:58.831Z,4.40
2023-01-13T06:31:00.654Z,4.57
2023-01-13T06:32:02.460Z,5.71
2023-01-13T06:33:04.290Z,6.58
2023-01-13T06:34:06.110Z,7.14
2023-01-13T06:35:07.956Z,4.97
2023-01-13T06:36:09.878Z,4.95
2023-01-13T06:37:11.699Z,4.77
2023-01-13T06:38:13.516Z,4.69
2023-01-13T06:39:15.348Z,4.84
2023-01-13T06:40:17.320Z,6.09
2023-01-13T06:41:19.124Z,8.05
2023-01-13T06:42:21.056Z,7.30
2023-01-13T06:43:23.643Z,5.69
2023-01-13T06:44:25.473Z,5.21
2023-01-13T06:45:27.316Z,5.57
2023-01-13T06:46:29.142Z,5.49
2023-01-13T06:47:30.943Z,5.85
2023-01-13T06:48:33.124Z,7.77
2023-01-13T06:49:34.971Z,14.99
2023-01-13T06:50:36.938Z,11.11
2023-01-13T06:51:38.757Z,8.38
2023-01-13T06:52:40.559Z,7.70
2023-01-13T06:53:42.363Z,9.35
2023-01-13T06:54:44.195Z,6.37
2023-01-13T06:55:46.035Z,5.92
2023-01-13T06:56:47.956Z,5.17
2023-01-13T06:57:49.756Z,6.19
2023-01-13T06:58:51.662Z,6.39
2023-01-13T06:59:53.476Z,7.03
2023-01-13T07:00:55.526Z,8.44
2023-01-13T07:01:57.621Z,9.97
2023-01-13T07:02:59.609Z,7.96
2023-01-13T07:04:01.444Z,7.45
2023-01-13T07:05:03.260Z,8.48
2023-01-13T07:06:05.241Z,7.32
2023-01-13T07:07:07.063Z,6.21
2023-01-13T07:08:08.872Z,6.37
2023-01-13T07:09:10.686Z,5.37
2023-01-13T07:10:12.709Z,9.67
2023-01-13T07:11:14.551Z,6.65
2023-01-13T07:12:16.356Z,5.79
2023-01-13T07:13:18.197Z,6.51
2023-01-13T07:14:20.200Z,7.99
2023-01-13T07:15:22.020Z,7.22
2023-01-13T07:16:24.295Z,6.87
2023-01-13T07:17:26.122Z,5.51
2023-01-13T07:18:27.941Z,5.17
2023-01-13T07:19:29.775Z,5.16
2023-01-13T07:20:31.796Z,5.11
2023-01-13T07:21:33.680Z,4.98
2023-01-13T07:22:35.495Z,4.95
2023-01-13T07:23:37.367Z,4.11
2023-01-13T07:24:39.179Z,4.79
2023-01-13T07:25:41.007Z,4.46
2023-01-13T07:26:43.189Z,4.97
2023-01-13T07:27:45.158Z,5.59
2023-01-13T07:28:46.982Z,6.81
2023-01-13T07:29:48.832Z,5.91
2023-01-13T07:30:50.750Z,5.23
2023-01-13T07:31:52.711Z,5.21
2023-01-13T07:32:54.529Z,4.95
2023-01-13T07:33:56.356Z,4.91
2023-01-13T07:34:58.185Z,5.21
2023-01-13T07:35:59.982Z,5.15
2023-01-13T07:37:01.843Z,4.05
2023-01-13T07:38:03.638Z,4.67
2023-01-13T07:39:05.480Z,6.41
2023-01-13T07:40:07.503Z,5.59
2023-01-13T07:41:09.318Z,5.43
2023-01-13T07:42:11.180Z,5.43
2023-01-13T07:43:13.024Z,4.43
2023-01-13T07:44:14.816Z,4.80
2023-01-13T07:45:16.809Z,4.67
2023-01-13T07:46:18.732Z,4.05
2023-01-13T07:47:20.563Z,5.13
2023-01-13T07:48:22.377Z,5.24
2023-01-13T07:49:24.173Z,5.17
2023-01-13T07:50:26.100Z,5.30
2023-01-13T07:51:27.927Z,5.74
2023-01-13T07:52:29.761Z,5.47
2023-01-13T07:53:31.587Z,5.44
2023-01-13T07:54:40.587Z,5.95
2023-01-13T07:55:37.023Z,6.68
2023-01-13T07:56:39.059Z,5.47
2023-01-13T07:57:40.895Z,5.67
2023-01-13T07:58:42.720Z,6.09
2023-01-13T07:59:44.520Z,6.25
2023-01-13T08:00:46.505Z,6.95
2023-01-13T08:01:48.547Z,6.94
2023-01-13T08:02:50.492Z,6.66
2023-01-13T08:03:52.315Z,6.23
2023-01-13T08:04:54.093Z,4.42
2023-01-13T08:05:55.905Z,6.65
2023-01-13T08:06:57.914Z,5.93
2023-01-13T08:07:59.766Z,6.26
2023-01-13T08:09:01.568Z,5.11
2023-01-13T08:10:03.375Z,5.23
2023-01-13T08:11:05.163Z,6.38
2023-01-13T08:12:06.987Z,8.72
2023-01-13T08:13:08.949Z,7.25
2023-01-13T08:14:10.796Z,7.77
2023-01-13T08:15:12.571Z,15.94
2023-01-13T08:16:14.549Z,7.32
2023-01-13T08:17:16.504Z,7.09
2023-01-13T08:18:18.440Z,6.20
2023-01-13T08:19:20.275Z,7.68
2023-01-13T08:20:22.191Z,8.35
2023-01-13T08:21:24.013Z,8.89
2023-01-13T08:22:25.823Z,7.01
2023-01-13T08:23:27.667Z,6.20
2023-01-13T08:24:29.476Z,6.07
2023-01-13T08:25:31.271Z,5.68
2023-01-13T08:26:33.548Z,5.69
2023-01-13T08:27:35.359Z,5.71
2023-01-13T08:28:37.205Z,5.99
2023-01-13T08:29:39.013Z,6.18
2023-01-13T08:30:42.140Z,8.07
2023-01-13T08:31:44.017Z,8.73
2023-01-13T08:32:45.835Z,7.50
2023-01-13T08:33:47.709Z,7.31
2023-01-13T08:34:49.506Z,7.59
2023-01-13T08:35:51.319Z,6.17
2023-01-13T08:36:53.241Z,8.14
2023-01-13T08:37:55.081Z,7.77
2023-01-13T08:38:56.915Z,10.65
2023-01-13T08:39:58.767Z,14.41
2023-01-13T08:41:00.668Z,10.72
2023-01-13T08:42:02.499Z,11.67
2023-01-13T08:43:04.308Z,12.21
2023-01-13T08:44:06.167Z,11.45
2023-01-13T08:45:07.985Z,13.97
2023-01-13T08:46:10.564Z,11.46
2023-01-13T08:47:12.465Z,10.55
2023-01-13T08:48:14.255Z,7.27
2023-01-13T08:49:16.110Z,5.18
2023-01-13T08:50:18.132Z,5.45
2023-01-13T08:51:19.958Z,5.56
2023-01-13T08:52:21.748Z,5.22
2023-01-13T08:53:23.584Z,5.67
2023-01-13T08:54:25.430Z,6.58
2023-01-13T08:55:27.262Z,6.96
2023-01-13T08:56:29.056Z,8.01
2023-01-13T08:57:30.909Z,7.81
2023-01-13T08:58:33.009Z,8.02
2023-01-13T08:59:34.890Z,5.79
2023-01-13T09:00:36.815Z,4.75
2023-01-13T09:01:38.769Z,4.61
2023-01-13T09:02:40.666Z,4.75
2023-01-13T09:03:42.475Z,5.37
2023-01-13T09:04:44.397Z,4.89
2023-01-13T09:05:46.246Z,4.75
2023-01-13T09:06:48.175Z,7.10
2023-01-13T09:07:49.985Z,7.54
2023-01-13T09:08:51.787Z,6.39
2023-01-13T09:09:53.659Z,5.18
2023-01-13T09:10:55.574Z,5.69
2023-01-13T09:11:57.383Z,6.81
2023-01-13T09:12:59.172Z,5.03
2023-01-13T09:14:03.262Z,4.59
2023-01-13T09:15:04.686Z,4.34
2023-01-13T09:16:06.640Z,4.73
2023-01-13T09:17:08.490Z,4.33
2023-01-13T09:18:10.483Z,4.87
2023-01-13T09:19:12.296Z,5.78
2023-01-13T09:20:14.164Z,5.34
2023-01-13T09:21:15.965Z,5.91
2023-01-13T09:22:17.792Z,6.55
2023-01-13T09:23:19.614Z,5.82
2023-01-13T09:24:21.416Z,4.84
2023-01-13T09:25:23.262Z,4.34
2023-01-13T09:26:25.282Z,4.65
2023-01-13T09:27:27.115Z,4.83
2023-01-13T09:28:28.910Z,4.93
2023-01-13T09:29:30.733Z,5.02
2023-01-13T09:30:32.900Z,4.52
2023-01-13T09:31:34.683Z,4.82
2023-01-13T09:32:36.486Z,4.79
2023-01-13T09:33:38.340Z,6.59
2023-01-13T09:34:40.147Z,8.15
2023-01-13T09:35:42.009Z,6.29
2023-01-13T09:36:43.902Z,6.37
2023-01-13T09:37:45.714Z,11.01
2023-01-13T09:38:47.535Z,16.68
2023-01-13T09:39:49.365Z,13.01
2023-01-13T09:40:51.201Z,10.21
2023-01-13T09:41:53.006Z,7.51
2023-01-13T09:42:54.839Z,7.35
2023-01-13T09:43:56.656Z,8.61
2023-01-13T09:44:58.484Z,7.67
2023-01-13T09:46:00.392Z,8.42
2023-01-13T09:47:02.287Z,6.01
2023-01-13T09:48:04.084Z,6.85
2023-01-13T09:49:05.930Z,8.75
2023-01-13T09:50:07.942Z,7.59
2023-01-13T09:51:10.012Z,6.32
2023-01-13T09:52:11.834Z,5.85
2023-01-13T09:53:13.636Z,5.18
2023-01-13T09:54:15.452Z,5.59
2023-01-13T09:55:17.273Z,5.32
2023-01-13T09:56:19.144Z,5.25
2023-01-13T09:57:20.937Z,4.79
2023-01-13T09:58:22.733Z,7.03
2023-01-13T09:59:24.532Z,5.55
2023-01-13T10:00:26.548Z,5.27
2023-01-13T10:01:29.147Z,4.83
2023-01-13T10:02:30.950Z,4.72
2023-01-13T10:03:32.843Z,5.51
2023-01-13T10:04:34.746Z,5.83
2023-01-13T10:05:36.608Z,5.41
2023-01-13T10:06:38.653Z,5.15
2023-01-13T10:07:40.474Z,5.50
2023-01-13T10:08:42.263Z,5.19
2023-01-13T10:09:44.091Z,5.48
2023-01-13T10:10:46.005Z,7.44
2023-01-13T10:11:47.827Z,6.19
2023-01-13T10:12:49.639Z,4.97
2023-01-13T10:13:51.465Z,4.93
2023-01-13T10:14:54.026Z,5.24
2023-01-13T10:15:55.947Z,4.98
2023-01-13T10:16:57.841Z,5.05
2023-01-13T10:17:59.633Z,4.25
2023-01-13T10:19:01.456Z,4.51
2023-01-13T10:20:03.341Z,4.26
2023-01-13T10:21:05.151Z,3.86
2023-01-13T10:22:09.261Z,4.25
2023-01-13T10:23:10.621Z,5.23
2023-01-13T10:24:12.538Z,6.62
2023-01-13T10:25:14.355Z,7.75
2023-01-13T10:26:16.281Z,6.12
2023-01-13T10:27:18.204Z,6.27
2023-01-13T10:28:20.120Z,5.32
2023-01-13T10:29:21.948Z,5.41
2023-01-13T10:30:23.850Z,9.25
2023-01-13T10:31:25.706Z,7.48
2023-01-13T10:32:27.608Z,6.55
2023-01-13T10:33:29.416Z,5.30
2023-01-13T10:34:31.237Z,4.90
2023-01-13T10:35:33.101Z,5.07
2023-01-13T10:36:34.917Z,4.91
2023-01-13T10:37:36.796Z,5.64
2023-01-13T10:38:38.628Z,5.96
2023-01-13T10:39:40.430Z,5.67
2023-01-13T10:40:42.343Z,5.44
2023-01-13T10:41:44.157Z,5.41
2023-01-13T10:42:46.003Z,5.60
2023-01-13T10:43:47.803Z,7.11
2023-01-13T10:44:49.624Z,5.57
2023-01-13T10:45:51.447Z,4.96
2023-01-13T10:46:53.315Z,6.16
2023-01-13T10:47:55.182Z,4.86
2023-01-13T10:48:57.039Z,6.55
2023-01-13T10:49:58.944Z,5.05
2023-01-13T10:51:00.939Z,4.63
2023-01-13T10:52:02.805Z,4.37
2023-01-13T10:53:04.718Z,4.19
2023-01-13T10:54:06.529Z,4.32
2023-01-13T10:55:08.330Z,5.05
2023-01-13T10:56:10.141Z,3.98
2023-01-13T10:57:11.970Z,5.13
2023-01-13T10:58:13.836Z,6.40
2023-01-13T10:59:15.645Z,8.28
2023-01-13T11:00:17.831Z,9.93
2023-01-13T11:01:19.768Z,10.24
2023-01-13T11:02:26.490Z,10.07
2023-01-13T11:03:25.415Z,9.19
2023-01-13T11:04:27.311Z,8.93
2023-01-13T11:05:29.166Z,8.01
2023-01-13T11:06:31.120Z,10.83
2023-01-13T11:07:32.944Z,7.27
2023-01-13T11:08:34.801Z,5.69
2023-01-13T11:09:36.630Z,5.30
2023-01-13T11:10:38.556Z,4.46
2023-01-13T11:11:40.385Z,5.06
2023-01-13T11:12:42.182Z,5.46
2023-01-13T11:13:44.052Z,5.04
2023-01-13T11:14:45.843Z,4.84
2023-01-13T11:15:47.655Z,7.09
2023-01-13T11:16:53.510Z,8.03
2023-01-13T11:17:53.201Z,10.09
2023-01-13T11:18:55.066Z,9.70
2023-01-13T11:19:56.875Z,6.07
2023-01-13T11:20:59.007Z,6.38
2023-01-13T11:22:00.850Z,6.19
2023-01-13T11:23:02.643Z,4.96
2023-01-13T11:24:04.501Z,5.61
2023-01-13T11:25:06.319Z,6.02
2023-01-13T11:26:08.544Z,5.73
2023-01-13T11:27:10.372Z,5.44
2023-01-13T11:28:12.201Z,7.67
2023-01-13T11:29:14.053Z,8.71
2023-01-13T11:30:16.051Z,10.60
2023-01-13T11:31:17.949Z,13.23
2023-01-13T11:32:19.905Z,17.59
2023-01-13T11:33:21.718Z,16.69
2023-01-13T11:34:23.576Z,10.02
2023-01-13T11:35:25.403Z,6.81
2023-01-13T11:36:27.316Z,8.05
2023-01-13T11:37:29.145Z,5.85
2023-01-13T11:38:30.960Z,4.69
2023-01-13T11:39:32.815Z,4.81
2023-01-13T11:40:34.742Z,4.71
2023-01-13T11:41:36.544Z,5.11
2023-01-13T11:42:38.372Z,9.65
2023-01-13T11:43:40.206Z,9.81
2023-01-13T11:44:42.074Z,9.17
2023-01-13T11:45:43.936Z,8.62
2023-01-13T11:46:45.981Z,7.84
2023-01-13T11:47:47.850Z,8.95
2023-01-13T11:48:49.657Z,11.41
2023-01-13T11:49:51.516Z,11.13
2023-01-13T11:50:53.535Z,7.83
2023-01-13T11:51:55.351Z,7.00
2023-01-13T11:52:57.202Z,9.41
2023-01-13T11:53:59.021Z,8.29
2023-01-13T11:55:00.861Z,7.15
2023-01-13T11:56:02.717Z,8.59
2023-01-13T11:57:04.519Z,7.00
2023-01-13T11:58:06.373Z,7.34
2023-01-13T11:59:08.188Z,10.13
2023-01-13T12:00:10.349Z,8.61
2023-01-13T12:01:12.189Z,7.04
2023-01-13T12:02:14.059Z,9.77
2023-01-13T12:03:15.950Z,8.72
2023-01-13T12:04:17.805Z,5.49
2023-01-13T12:05:19.650Z,6.02
2023-01-13T12:06:21.577Z,6.01
2023-01-13T12:07:23.520Z,6.36
2023-01-13T12:08:25.396Z,5.58
2023-01-13T12:09:27.189Z,6.17
2023-01-13T12:10:29.206Z,9.19
2023-01-13T12:11:31.109Z,9.99
2023-01-13T12:12:32.926Z,8.05
2023-01-13T12:13:34.747Z,6.61
2023-01-13T12:14:36.599Z,5.24
2023-01-13T12:15:38.444Z,5.86
2023-01-13T12:16:40.452Z,4.69
2023-01-13T12:17:42.311Z,5.42
2023-01-13T12:18:44.132Z,5.94
2023-01-13T12:19:46.018Z,4.80
2023-01-13T12:20:48.014Z,4.36
2023-01-13T12:21:49.865Z,5.30
2023-01-13T12:22:51.698Z,5.76
2023-01-13T12:23:53.541Z,4.93
2023-01-13T12:24:55.382Z,5.89
2023-01-13T12:25:57.363Z,5.80
2023-01-13T12:26:59.182Z,6.23
2023-01-13T12:28:01.045Z,5.00
2023-01-13T12:29:02.933Z,4.80
2023-01-13T12:30:04.885Z,4.77
2023-01-13T12:31:06.791Z,4.18
2023-01-13T12:32:08.706Z,3.34
2023-01-13T12:33:10.527Z,3.58
2023-01-13T12:34:12.328Z,3.01
2023-01-13T12:35:14.203Z,3.35
2023-01-13T12:36:16.159Z,3.71
2023-01-13T12:37:17.987Z,3.80
2023-01-13T12:38:19.852Z,3.89
2023-01-13T12:39:21.676Z,4.19
2023-01-13T12:40:23.641Z,4.11
2023-01-13T12:41:25.475Z,4.61
2023-01-13T12:42:27.294Z,4.52
2023-01-13T12:43:29.148Z,7.21
2023-01-13T12:44:31.116Z,7.29
2023-01-13T12:45:33.054Z,13.32
2023-01-13T12:46:35.196Z,15.03
2023-01-13T12:47:37.026Z,16.31
2023-01-13T12:48:40.282Z,13.74
2023-01-13T12:49:42.229Z,9.86
2023-01-13T12:50:44.173Z,7.14
2023-01-13T12:51:46.059Z,7.66
2023-01-13T12:52:47.879Z,8.46
2023-01-13T12:53:49.712Z,8.70
2023-01-13T12:54:51.558Z,11.55
2023-01-13T12:55:53.415Z,12.57
2023-01-13T12:56:55.315Z,13.02
2023-01-13T12:57:57.123Z,13.24
2023-01-13T12:58:58.927Z,10.04
2023-01-13T13:00:00.776Z,10.47
2023-01-13T13:01:02.713Z,7.97
2023-01-13T13:02:04.778Z,10.01
2023-01-13T13:03:06.763Z,10.65
2023-01-13T13:04:08.558Z,9.04
2023-01-13T13:05:10.391Z,6.97
2023-01-13T13:06:12.235Z,7.06
2023-01-13T13:07:14.106Z,9.15
2023-01-13T13:08:15.925Z,5.74
2023-01-13T13:09:17.730Z,8.14
2023-01-13T13:10:19.567Z,8.93
2023-01-13T13:11:21.384Z,9.33
2023-01-13T13:12:23.235Z,7.40
2023-01-13T13:13:25.045Z,6.49
2023-01-13T13:14:26.858Z,9.47
2023-01-13T13:15:28.669Z,11.33
2023-01-13T13:16:30.633Z,8.38
2023-01-13T13:17:32.554Z,5.08
2023-01-13T13:18:34.445Z,5.31
2023-01-13T13:19:36.264Z,7.04
2023-01-13T13:20:38.084Z,6.88
2023-01-13T13:21:39.892Z,7.04
2023-01-13T13:22:41.743Z,6.77
2023-01-13T13:23:43.624Z,8.43
2023-01-13T13:24:45.408Z,10.00
2023-01-13T13:25:47.267Z,8.02
2023-01-13T13:26:49.176Z,5.53
2023-01-13T13:27:51.037Z,6.23
2023-01-13T13:28:52.859Z,11.11
2023-01-13T13:29:54.693Z,12.54
2023-01-13T13:30:56.602Z,14.07
2023-01-13T13:31:58.375Z,14.85
2023-01-13T13:33:00.223Z,13.27
2023-01-13T13:34:02.041Z,12.89
2023-01-13T13:35:03.852Z,9.86
2023-01-13T13:36:05.755Z,9.21
2023-01-13T13:37:07.579Z,9.99
2023-01-13T13:38:09.457Z,10.86
2023-01-13T13:39:11.244Z,11.36
2023-01-13T13:40:14.065Z,11.72
2023-01-13T13:41:16.080Z,13.69
2023-01-13T13:42:17.913Z,16.36
2023-01-13T13:43:19.741Z,10.41
2023-01-13T13:44:21.576Z,7.98
2023-01-13T13:45:23.380Z,8.07
2023-01-13T13:46:25.363Z,9.73
2023-01-13T13:47:27.111Z,8.87
2023-01-13T13:48:28.953Z,12.48
2023-01-13T13:49:30.777Z,18.98
2023-01-13T13:50:32.709Z,14.29
2023-01-13T13:51:34.508Z,21.24
2023-01-13T13:52:36.423Z,23.47
2023-01-13T13:53:38.310Z,15.75
2023-01-13T13:54:40.131Z,12.31
2023-01-13T13:55:41.926Z,8.69
2023-01-13T13:56:44.088Z,9.26
2023-01-13T13:57:45.906Z,6.87
2023-01-13T13:58:47.781Z,10.42
2023-01-13T13:59:49.581Z,9.59
2023-01-13T14:00:51.489Z,9.71
2023-01-13T14:01:53.458Z,10.13
2023-01-13T14:02:55.350Z,10.78
2023-01-13T14:03:57.208Z,12.19
2023-01-13T14:04:59.034Z,10.37
2023-01-13T14:06:00.822Z,9.51
2023-01-13T14:07:02.613Z,10.10
2023-01-13T14:08:04.391Z,11.45
2023-01-13T14:09:06.246Z,9.69
2023-01-13T14:10:09.707Z,10.14
2023-01-13T14:11:11.507Z,14.31
2023-01-13T14:12:13.468Z,18.57
2023-01-13T14:13:15.261Z,17.73
2023-01-13T14:14:17.100Z,16.09
2023-01-13T14:15:18.922Z,17.11
2023-01-13T14:16:20.837Z,16.13
2023-01-13T14:17:22.636Z,14.83
2023-01-13T14:18:24.447Z,13.30
2023-01-13T14:19:26.309Z,13.22
2023-01-13T14:20:28.223Z,13.49
2023-01-13T14:21:30.029Z,10.32
2023-01-13T14:22:31.842Z,9.91
2023-01-13T14:23:33.642Z,9.20
2023-01-13T14:24:35.503Z,10.47
2023-01-13T14:25:37.368Z,10.91
2023-01-13T14:26:40.088Z,7.18
2023-01-13T14:27:41.966Z,5.13
2023-01-13T14:28:43.820Z,5.08
2023-01-13T14:29:45.666Z,5.43
2023-01-13T14:30:47.780Z,7.84
2023-01-13T14:31:49.674Z,10.21
2023-01-13T14:32:51.488Z,10.26
2023-01-13T14:33:53.288Z,10.79
2023-01-13T14:34:55.153Z,11.17
2023-01-13T14:35:56.959Z,12.03
2023-01-13T14:36:58.869Z,9.90
2023-01-13T14:38:00.666Z,8.91
2023-01-13T14:39:02.473Z,9.36
2023-01-13T14:40:04.420Z,11.27
2023-01-13T14:41:06.237Z,13.52
2023-01-13T14:42:08.043Z,13.09
2023-01-13T14:43:09.960Z,9.08
2023-01-13T14:44:11.780Z,7.43
2023-01-13T14:45:13.663Z,7.81
2023-01-13T14:46:15.618Z,9.46
2023-01-13T14:47:17.398Z,10.46
2023-01-13T14:48:19.206Z,8.17
2023-01-13T14:49:21.022Z,9.33
2023-01-13T14:50:22.964Z,8.57
2023-01-13T14:51:24.779Z,7.90
2023-01-13T14:52:26.591Z,6.24
2023-01-13T14:53:28.428Z,6.05
2023-01-13T14:54:30.241Z,6.24
2023-01-13T14:55:32.123Z,12.88
2023-01-13T14:56:33.990Z,17.47
2023-01-13T14:57:35.816Z,19.59
2023-01-13T14:58:37.644Z,20.99
2023-01-13T14:59:39.439Z,21.11
2023-01-13T15:00:41.375Z,27.91
2023-01-13T15:01:43.310Z,28.63
2023-01-13T15:02:45.146Z,23.99
2023-01-13T15:03:46.920Z,20.10
2023-01-13T15:04:48.721Z,17.69
2023-01-13T15:05:50.573Z,13.66
2023-01-13T15:06:52.494Z,14.17
2023-01-13T15:07:54.304Z,19.33
2023-01-13T15:08:56.100Z,22.47
2023-01-13T15:09:57.912Z,23.15
2023-01-13T15:11:00.081Z,22.64
2023-01-13T15:12:01.879Z,21.09
2023-01-13T15:13:03.690Z,22.41
2023-01-13T15:14:05.570Z,19.01
2023-01-13T15:15:07.389Z,14.68
2023-01-13T15:16:09.954Z,11.67
2023-01-13T15:17:11.741Z,7.57
2023-01-13T15:18:13.553Z,8.15
2023-01-13T15:19:15.375Z,9.29
2023-01-13T15:20:17.396Z,9.25
2023-01-13T15:21:19.245Z,10.49
2023-01-13T15:22:21.053Z,10.55
2023-01-13T15:23:22.971Z,7.89
2023-01-13T15:24:24.722Z,8.16
2023-01-13T15:25:26.540Z,8.01
2023-01-13T15:26:28.488Z,10.70
2023-01-13T15:27:30.302Z,12.63
2023-01-13T15:28:32.137Z,13.01
2023-01-13T15:29:34.027Z,12.45
2023-01-13T15:30:35.931Z,9.09
2023-01-13T15:31:37.776Z,8.54
2023-01-13T15:32:39.599Z,10.03
2023-01-13T15:33:41.413Z,11.34
2023-01-13T15:34:43.206Z,9.83
2023-01-13T15:35:45.019Z,9.96
2023-01-13T15:36:46.968Z,9.91
2023-01-13T15:37:48.788Z,8.63
2023-01-13T15:38:50.595Z,8.92
2023-01-13T15:39:52.405Z,9.32
2023-01-13T15:40:54.322Z,7.79
2023-01-13T15:41:56.184Z,7.63
2023-01-13T15:42:58.024Z,6.31
2023-01-13T15:43:59.857Z,6.54
2023-01-13T15:45:01.695Z,6.59
2023-01-13T15:46:03.620Z,9.05
2023-01-13T15:47:05.454Z,11.06
2023-01-13T15:48:07.266Z,12.62
2023-01-13T15:49:09.074Z,13.73
2023-01-13T15:50:11.511Z,10.23
2023-01-13T15:51:13.333Z,9.01
2023-01-13T15:52:15.395Z,9.17
2023-01-13T15:53:17.205Z,9.86
2023-01-13T15:54:19.015Z,10.31
2023-01-13T15:55:20.843Z,12.33
2023-01-13T15:56:22.790Z,22.70
2023-01-13T15:57:24.646Z,27.34
2023-01-13T15:58:28.212Z,30.87
2023-01-13T15:59:30.088Z,25.90
2023-01-13T16:00:32.188Z,29.12
2023-01-13T16:01:33.981Z,32.54
2023-01-13T16:02:35.944Z,29.93
2023-01-13T16:03:37.740Z,30.50
2023-01-13T16:04:39.575Z,28.92
2023-01-13T16:05:41.381Z,26.45
2023-01-13T16:06:43.536Z,19.83
2023-01-13T16:07:45.377Z,13.23
2023-01-13T16:08:47.187Z,14.27
2023-01-13T16:09:49.004Z,14.90
2023-01-13T16:10:51.046Z,14.37
2023-01-13T16:11:52.865Z,12.59
2023-01-13T16:12:56.527Z,11.70
2023-01-13T16:13:58.362Z,10.73
2023-01-13T16:15:00.155Z,11.05
2023-01-13T16:16:02.010Z,11.66
2023-01-13T16:17:03.840Z,11.66
2023-01-13T16:18:05.693Z,15.46
2023-01-13T16:19:07.520Z,14.86
2023-01-13T16:20:09.641Z,16.13
2023-01-13T16:21:11.456Z,13.25
2023-01-13T16:22:14.370Z,10.94
2023-01-13T16:23:16.370Z,12.99
2023-01-13T16:24:18.203Z,14.50
2023-01-13T16:25:20.041Z,13.43
2023-01-13T16:26:22.003Z,15.99
2023-01-13T16:27:23.962Z,13.91
2023-01-13T16:28:25.817Z,13.83
2023-01-13T16:29:27.634Z,10.77
2023-01-13T16:30:29.558Z,9.98
2023-01-13T16:31:31.475Z,9.20
2023-01-13T16:32:33.335Z,8.91
2023-01-13T16:33:35.193Z,7.39
2023-01-13T16:34:37.014Z,7.96
2023-01-13T16:36:09.001Z,8.26
2023-01-13T16:36:42.559Z,6.94
2023-01-13T16:37:44.380Z,9.08
2023-01-13T16:38:46.281Z,11.54
2023-01-13T16:39:48.105Z,12.05
2023-01-13T16:40:50.012Z,12.21
2023-01-13T16:41:51.842Z,11.21
2023-01-13T16:42:53.647Z,10.59
2023-01-13T16:43:55.528Z,10.01
2023-01-13T16:44:57.356Z,8.92
2023-01-13T16:45:59.222Z,9.34
2023-01-13T16:47:01.209Z,10.12
2023-01-13T16:48:03.145Z,12.81
2023-01-13T16:49:05.007Z,13.75
2023-01-13T16:50:07.326Z,11.35
2023-01-13T16:51:09.132Z,7.61
2023-01-13T16:52:10.968Z,7.06
2023-01-13T16:53:12.763Z,10.95
2023-01-13T16:54:14.648Z,17.03
2023-01-13T16:55:16.476Z,19.63
2023-01-13T16:56:20.534Z,16.63
2023-01-13T16:57:22.038Z,23.23
2023-01-13T16:58:23.867Z,21.19
2023-01-13T16:59:25.769Z,24.19
2023-01-13T17:00:27.593Z,28.84
2023-01-13T17:01:29.551Z,28.60
2023-01-13T17:02:31.479Z,18.16
2023-01-13T17:03:33.414Z,12.06
2023-01-13T17:04:35.307Z,11.01
2023-01-13T17:05:37.181Z,8.81
2023-01-13T17:06:39.117Z,8.13
2023-01-13T17:07:40.922Z,9.26
2023-01-13T17:08:42.743Z,9.76
2023-01-13T17:09:44.599Z,10.49
2023-01-13T17:10:46.542Z,10.02
2023-01-13T17:11:48.347Z,10.30
2023-01-13T17:12:50.151Z,12.54
2023-01-13T17:13:51.965Z,12.50
2023-01-13T17:14:53.840Z,12.59
2023-01-13T17:15:55.660Z,10.89
2023-01-13T17:16:57.570Z,12.59
2023-01-13T17:17:59.397Z,12.05
2023-01-13T17:19:01.239Z,14.13
2023-01-13T17:20:03.330Z,16.94
2023-01-13T17:21:05.146Z,16.33
2023-01-13T17:22:06.982Z,13.60
2023-01-13T17:23:08.808Z,11.64
2023-01-13T17:24:10.678Z,9.85
2023-01-13T17:25:12.622Z,10.99
2023-01-13T17:26:15.355Z,11.93
2023-01-13T17:27:17.208Z,12.16
2023-01-13T17:28:19.023Z,12.05
2023-01-13T17:29:20.831Z,12.09
2023-01-13T17:30:22.804Z,10.49
2023-01-13T17:31:24.633Z,9.91
2023-01-13T17:32:26.441Z,9.79
2023-01-13T17:33:28.276Z,9.09
2023-01-13T17:34:30.104Z,8.51
2023-01-13T17:35:31.973Z,8.98
2023-01-13T17:36:33.875Z,9.37
2023-01-13T17:37:35.682Z,9.88
2023-01-13T17:38:37.509Z,9.97
2023-01-13T17:39:39.329Z,9.18
2023-01-13T17:40:41.198Z,8.21
2023-01-13T17:41:42.994Z,10.32
2023-01-13T17:42:44.803Z,9.80
2023-01-13T17:43:46.648Z,9.98
2023-01-13T17:44:48.498Z,11.27
2023-01-13T17:45:50.383Z,10.81
2023-01-13T17:46:52.370Z,9.15
2023-01-13T17:47:54.200Z,7.95
2023-01-13T17:48:56.189Z,9.30
2023-01-13T17:49:57.994Z,10.37
2023-01-13T17:51:00.283Z,11.18
2023-01-13T17:52:02.170Z,10.39